Terminal Aerodrome Forecast
Issued by NWS

Home | Current Version | Previous Version | Text Only | Print | Product List | Glossary On
Versions: 1 2 3 4 5 6 7 8 9 10 11 12 13 14 15
000
FTUS45 KVEF 031700
TAFDAG
TAF
KDAG 031739Z 0318/0418 31009KT P6SM SKC
     FM040000 25007KT P6SM BKN080
     FM040500 27007KT P6SM SCT100=

USA.gov is the U.S. government's official web portal to all federal, state and local government web resources and services.